sensor_id;sensor_type;location;lat;lon;timestamp;temperature;humidity
10447;DHT22;70909;45.768;4.884;2023-06-26T00:00:02;28.80;68.30
10447;DHT22;70909;45.768;4.884;2023-06-26T00:02:30;28.70;68.20
10447;DHT22;70909;45.768;4.884;2023-06-26T00:04:58;28.80;68.30
10447;DHT22;70909;45.768;4.884;2023-06-26T00:07:28;28.70;68.90
10447;DHT22;70909;45.768;4.884;2023-06-26T00:09:56;28.70;68.30
10447;DHT22;70909;45.768;4.884;2023-06-26T00:12:24;28.70;68.40
10447;DHT22;70909;45.768;4.884;2023-06-26T00:14:50;28.60;68.50
10447;DHT22;70909;45.768;4.884;2023-06-26T00:17:18;28.60;68.50
10447;DHT22;70909;45.768;4.884;2023-06-26T00:19:45;28.60;68.60
10447;DHT22;70909;45.768;4.884;2023-06-26T00:22:11;28.60;68.50
10447;DHT22;70909;45.768;4.884;2023-06-26T00:24:38;28.60;68.60
10447;DHT22;70909;45.768;4.884;2023-06-26T00:27:07;28.60;68.70
10447;DHT22;70909;45.768;4.884;2023-06-26T00:29:34;28.50;68.70
10447;DHT22;70909;45.768;4.884;2023-06-26T00:32:00;28.50;68.70
10447;DHT22;70909;45.768;4.884;2023-06-26T00:34:27;28.50;68.70
10447;DHT22;70909;45.768;4.884;2023-06-26T00:36:54;28.50;68.70
10447;DHT22;70909;45.768;4.884;2023-06-26T00:39:21;28.50;68.80
10447;DHT22;70909;45.768;4.884;2023-06-26T00:41:51;28.50;69.00
10447;DHT22;70909;45.768;4.884;2023-06-26T00:44:20;28.40;68.90
10447;DHT22;70909;45.768;4.884;2023-06-26T00:46:47;28.40;69.10
10447;DHT22;70909;45.768;4.884;2023-06-26T00:49:14;28.40;69.30
10447;DHT22;70909;45.768;4.884;2023-06-26T00:51:41;28.40;69.20
10447;DHT22;70909;45.768;4.884;2023-06-26T00:54:08;28.30;69.40
10447;DHT22;70909;45.768;4.884;2023-06-26T00:56:35;28.30;69.70
10447;DHT22;70909;45.768;4.884;2023-06-26T00:59:02;28.30;69.70
10447;DHT22;70909;45.768;4.884;2023-06-26T01:01:31;28.20;69.90
10447;DHT22;70909;45.768;4.884;2023-06-26T01:03:57;28.20;69.90
10447;DHT22;70909;45.768;4.884;2023-06-26T01:06:26;28.20;69.90
10447;DHT22;70909;45.768;4.884;2023-06-26T01:08:55;28.20;70.00
10447;DHT22;70909;45.768;4.884;2023-06-26T01:11:22;28.30;69.90
10447;DHT22;70909;45.768;4.884;2023-06-26T01:13:49;28.30;70.00
10447;DHT22;70909;45.768;4.884;2023-06-26T01:16:18;28.30;70.10
10447;DHT22;70909;45.768;4.884;2023-06-26T01:18:48;28.20;70.00
10447;DHT22;70909;45.768;4.884;2023-06-26T01:21:15;28.30;70.20
10447;DHT22;70909;45.768;4.884;2023-06-26T01:23:56;28.30;70.40
10447;DHT22;70909;45.768;4.884;2023-06-26T01:26:29;28.30;70.90
10447;DHT22;70909;45.768;4.884;2023-06-26T01:28:57;28.30;70.70
10447;DHT22;70909;45.768;4.884;2023-06-26T01:31:26;28.30;70.60
10447;DHT22;70909;45.768;4.884;2023-06-26T01:33:54;28.30;70.90
10447;DHT22;70909;45.768;4.884;2023-06-26T01:36:22;28.30;71.10
10447;DHT22;70909;45.768;4.884;2023-06-26T01:38:49;28.20;72.00
10447;DHT22;70909;45.768;4.884;2023-06-26T01:41:16;28.10;72.50
10447;DHT22;70909;45.768;4.884;2023-06-26T01:44:00;28.00;73.30
10447;DHT22;70909;45.768;4.884;2023-06-26T01:46:35;27.90;75.60
10447;DHT22;70909;45.768;4.884;2023-06-26T01:49:07;27.70;76.70
10447;DHT22;70909;45.768;4.884;2023-06-26T01:51:39;27.60;76.60
10447;DHT22;70909;45.768;4.884;2023-06-26T01:54:10;27.50;77.80
10447;DHT22;70909;45.768;4.884;2023-06-26T01:56:40;27.40;77.70
10447;DHT22;70909;45.768;4.884;2023-06-26T01:59:11;27.30;77.90
10447;DHT22;70909;45.768;4.884;2023-06-26T02:01:39;27.30;78.10
10447;DHT22;70909;45.768;4.884;2023-06-26T02:04:06;27.30;79.10
10447;DHT22;70909;45.768;4.884;2023-06-26T02:06:33;27.20;79.30
10447;DHT22;70909;45.768;4.884;2023-06-26T02:09:00;27.20;79.50
10447;DHT22;70909;45.768;4.884;2023-06-26T02:11:26;27.10;79.60
10447;DHT22;70909;45.768;4.884;2023-06-26T02:13:53;27.10;80.00
10447;DHT22;70909;45.768;4.884;2023-06-26T02:16:21;27.10;80.10
10447;DHT22;70909;45.768;4.884;2023-06-26T02:18:48;27.10;80.80
10447;DHT22;70909;45.768;4.884;2023-06-26T02:21:15;27.00;80.50
10447;DHT22;70909;45.768;4.884;2023-06-26T02:23:42;27.00;80.60
10447;DHT22;70909;45.768;4.884;2023-06-26T02:26:09;26.90;80.90
10447;DHT22;70909;45.768;4.884;2023-06-26T02:28:36;26.80;81.00
10447;DHT22;70909;45.768;4.884;2023-06-26T02:31:03;26.80;81.80
10447;DHT22;70909;45.768;4.884;2023-06-26T02:33:31;26.70;81.80
10447;DHT22;70909;45.768;4.884;2023-06-26T02:35:58;26.80;82.20
10447;DHT22;70909;45.768;4.884;2023-06-26T02:38:25;26.70;82.00
10447;DHT22;70909;45.768;4.884;2023-06-26T02:40:52;26.70;82.20
10447;DHT22;70909;45.768;4.884;2023-06-26T02:43:18;26.70;82.00
10447;DHT22;70909;45.768;4.884;2023-06-26T02:45:45;26.70;82.10
10447;DHT22;70909;45.768;4.884;2023-06-26T02:48:12;26.60;83.00
10447;DHT22;70909;45.768;4.884;2023-06-26T02:50:40;26.60;83.00
10447;DHT22;70909;45.768;4.884;2023-06-26T02:53:07;26.50;83.90
10447;DHT22;70909;45.768;4.884;2023-06-26T02:55:34;26.50;83.70
10447;DHT22;70909;45.768;4.884;2023-06-26T02:58:01;26.50;83.90
10447;DHT22;70909;45.768;4.884;2023-06-26T03:00:28;26.40;84.40
10447;DHT22;70909;45.768;4.884;2023-06-26T03:02:55;26.40;84.30
10447;DHT22;70909;45.768;4.884;2023-06-26T03:05:22;26.40;84.20
10447;DHT22;70909;45.768;4.884;2023-06-26T03:07:51;26.40;84.10
10447;DHT22;70909;45.768;4.884;2023-06-26T03:10:17;26.30;84.20
10447;DHT22;70909;45.768;4.884;2023-06-26T03:12:44;26.30;84.50
10447;DHT22;70909;45.768;4.884;2023-06-26T03:15:11;26.30;85.10
10447;DHT22;70909;45.768;4.884;2023-06-26T03:17:38;26.30;84.70
10447;DHT22;70909;45.768;4.884;2023-06-26T03:20:06;26.30;85.30
10447;DHT22;70909;45.768;4.884;2023-06-26T03:22:34;26.30;85.20
10447;DHT22;70909;45.768;4.884;2023-06-26T03:25:03;26.30;85.10
10447;DHT22;70909;45.768;4.884;2023-06-26T03:27:30;26.20;85.20
10447;DHT22;70909;45.768;4.884;2023-06-26T03:29:57;26.20;85.60
10447;DHT22;70909;45.768;4.884;2023-06-26T03:32:25;26.20;85.20
10447;DHT22;70909;45.768;4.884;2023-06-26T03:34:52;26.20;85.70
10447;DHT22;70909;45.768;4.884;2023-06-26T03:37:19;26.20;86.20
10447;DHT22;70909;45.768;4.884;2023-06-26T03:39:46;26.10;85.80
10447;DHT22;70909;45.768;4.884;2023-06-26T03:42:14;26.10;85.80
10447;DHT22;70909;45.768;4.884;2023-06-26T03:44:41;26.10;86.00
10447;DHT22;70909;45.768;4.884;2023-06-26T03:47:08;26.10;85.90
10447;DHT22;70909;45.768;4.884;2023-06-26T03:49:35;26.10;85.70
10447;DHT22;70909;45.768;4.884;2023-06-26T03:52:01;26.20;85.80
10447;DHT22;70909;45.768;4.884;2023-06-26T03:54:28;26.20;85.80
10447;DHT22;70909;45.768;4.884;2023-06-26T03:56:55;26.20;86.20
10447;DHT22;70909;45.768;4.884;2023-06-26T03:59:23;26.20;86.20
10447;DHT22;70909;45.768;4.884;2023-06-26T04:01:50;26.20;86.50
10447;DHT22;70909;45.768;4.884;2023-06-26T04:04:16;26.20;86.20
10447;DHT22;70909;45.768;4.884;2023-06-26T04:06:43;26.30;86.80
10447;DHT22;70909;45.768;4.884;2023-06-26T04:09:10;26.30;86.90
10447;DHT22;70909;45.768;4.884;2023-06-26T04:11:37;26.20;87.00
10447;DHT22;70909;45.768;4.884;2023-06-26T04:14:04;26.20;87.00
10447;DHT22;70909;45.768;4.884;2023-06-26T04:16:32;26.20;86.90
10447;DHT22;70909;45.768;4.884;2023-06-26T04:18:58;26.30;87.20
10447;DHT22;70909;45.768;4.884;2023-06-26T04:21:26;26.30;87.10
10447;DHT22;70909;45.768;4.884;2023-06-26T04:23:53;26.30;87.00
10447;DHT22;70909;45.768;4.884;2023-06-26T04:26:20;26.40;87.10
10447;DHT22;70909;45.768;4.884;2023-06-26T04:28:46;26.30;87.20
10447;DHT22;70909;45.768;4.884;2023-06-26T04:31:13;26.30;87.30
10447;DHT22;70909;45.768;4.884;2023-06-26T04:33:41;26.30;86.90
10447;DHT22;70909;45.768;4.884;2023-06-26T04:36:08;26.40;87.00
10447;DHT22;70909;45.768;4.884;2023-06-26T04:38:36;26.30;87.10
10447;DHT22;70909;45.768;4.884;2023-06-26T04:41:03;26.30;87.30
10447;DHT22;70909;45.768;4.884;2023-06-26T04:43:30;26.30;87.00
10447;DHT22;70909;45.768;4.884;2023-06-26T04:45:57;26.30;86.80
10447;DHT22;70909;45.768;4.884;2023-06-26T04:48:24;26.30;86.60
10447;DHT22;70909;45.768;4.884;2023-06-26T04:50:54;26.30;86.50
10447;DHT22;70909;45.768;4.884;2023-06-26T04:53:22;26.40;86.50
10447;DHT22;70909;45.768;4.884;2023-06-26T04:55:49;26.40;86.40
10447;DHT22;70909;45.768;4.884;2023-06-26T04:58:16;26.40;86.30
10447;DHT22;70909;45.768;4.884;2023-06-26T05:00:43;26.40;86.40
10447;DHT22;70909;45.768;4.884;2023-06-26T05:03:12;26.40;86.50
10447;DHT22;70909;45.768;4.884;2023-06-26T05:05:39;26.40;86.60
10447;DHT22;70909;45.768;4.884;2023-06-26T05:08:17;26.40;86.50
10447;DHT22;70909;45.768;4.884;2023-06-26T05:10:44;26.50;86.60
10447;DHT22;70909;45.768;4.884;2023-06-26T05:13:12;26.50;86.40
10447;DHT22;70909;45.768;4.884;2023-06-26T05:15:40;26.50;86.50
10447;DHT22;70909;45.768;4.884;2023-06-26T05:18:08;26.40;86.60
10447;DHT22;70909;45.768;4.884;2023-06-26T05:20:35;26.40;86.70
10447;DHT22;70909;45.768;4.884;2023-06-26T05:23:03;26.40;86.90
10447;DHT22;70909;45.768;4.884;2023-06-26T05:25:32;26.40;86.90
10447;DHT22;70909;45.768;4.884;2023-06-26T05:28:00;26.40;87.00
10447;DHT22;70909;45.768;4.884;2023-06-26T05:30:27;26.50;87.00
10447;DHT22;70909;45.768;4.884;2023-06-26T05:32:56;26.60;86.80
10447;DHT22;70909;45.768;4.884;2023-06-26T05:35:27;26.60;86.60
10447;DHT22;70909;45.768;4.884;2023-06-26T05:37:55;26.60;86.70
10447;DHT22;70909;45.768;4.884;2023-06-26T05:40:23;26.60;86.50
10447;DHT22;70909;45.768;4.884;2023-06-26T05:42:52;26.60;85.80
10447;DHT22;70909;45.768;4.884;2023-06-26T05:45:19;26.60;85.30
10447;DHT22;70909;45.768;4.884;2023-06-26T05:47:46;26.60;85.20
10447;DHT22;70909;45.768;4.884;2023-06-26T05:50:14;26.70;85.10
10447;DHT22;70909;45.768;4.884;2023-06-26T05:52:41;26.70;84.90
10447;DHT22;70909;45.768;4.884;2023-06-26T05:55:10;26.70;84.40
10447;DHT22;70909;45.768;4.884;2023-06-26T05:57:38;26.80;84.20
10447;DHT22;70909;45.768;4.884;2023-06-26T06:00:10;26.80;84.00
10447;DHT22;70909;45.768;4.884;2023-06-26T06:02:37;26.80;83.20
10447;DHT22;70909;45.768;4.884;2023-06-26T06:05:04;26.80;83.30
10447;DHT22;70909;45.768;4.884;2023-06-26T06:07:31;26.90;83.40
10447;DHT22;70909;45.768;4.884;2023-06-26T06:09:59;26.90;83.50
10447;DHT22;70909;45.768;4.884;2023-06-26T06:12:25;27.00;83.60
10447;DHT22;70909;45.768;4.884;2023-06-26T06:14:52;27.10;83.40
10447;DHT22;70909;45.768;4.884;2023-06-26T06:17:21;27.20;83.10
10447;DHT22;70909;45.768;4.884;2023-06-26T06:19:48;27.30;83.20
10447;DHT22;70909;45.768;4.884;2023-06-26T06:22:14;27.40;83.20
10447;DHT22;70909;45.768;4.884;2023-06-26T06:24:43;27.40;83.30
10447;DHT22;70909;45.768;4.884;2023-06-26T06:27:10;27.50;83.30
10447;DHT22;70909;45.768;4.884;2023-06-26T06:29:37;27.60;83.10
10447;DHT22;70909;45.768;4.884;2023-06-26T06:32:04;27.70;83.00
10447;DHT22;70909;45.768;4.884;2023-06-26T06:34:32;27.70;82.60
10447;DHT22;70909;45.768;4.884;2023-06-26T06:36:59;27.70;82.00
10447;DHT22;70909;45.768;4.884;2023-06-26T06:39:26;27.80;81.70
10447;DHT22;70909;45.768;4.884;2023-06-26T06:41:53;27.80;81.30
10447;DHT22;70909;45.768;4.884;2023-06-26T06:44:20;27.80;81.40
10447;DHT22;70909;45.768;4.884;2023-06-26T06:46:47;27.80;81.20
10447;DHT22;70909;45.768;4.884;2023-06-26T06:49:14;27.80;81.20
10447;DHT22;70909;45.768;4.884;2023-06-26T06:51:42;27.80;80.60
10447;DHT22;70909;45.768;4.884;2023-06-26T06:54:09;27.80;80.50
10447;DHT22;70909;45.768;4.884;2023-06-26T06:56:36;27.80;80.30
10447;DHT22;70909;45.768;4.884;2023-06-26T06:59:03;28.00;80.00
10447;DHT22;70909;45.768;4.884;2023-06-26T07:01:29;27.90;80.20
10447;DHT22;70909;45.768;4.884;2023-06-26T07:03:56;27.90;80.20
10447;DHT22;70909;45.768;4.884;2023-06-26T07:06:23;27.90;80.10
10447;DHT22;70909;45.768;4.884;2023-06-26T07:08:51;28.20;80.20
10447;DHT22;70909;45.768;4.884;2023-06-26T07:11:18;28.90;79.80
10447;DHT22;70909;45.768;4.884;2023-06-26T07:13:45;29.80;78.30
10447;DHT22;70909;45.768;4.884;2023-06-26T07:16:11;30.70;77.00
10447;DHT22;70909;45.768;4.884;2023-06-26T07:18:40;31.60;75.80
10447;DHT22;70909;45.768;4.884;2023-06-26T07:21:07;32.50;74.40
10447;DHT22;70909;45.768;4.884;2023-06-26T07:23:34;33.30;72.50
10447;DHT22;70909;45.768;4.884;2023-06-26T07:26:03;34.10;71.40
10447;DHT22;70909;45.768;4.884;2023-06-26T07:28:29;34.70;69.70
10447;DHT22;70909;45.768;4.884;2023-06-26T07:30:56;35.10;68.40
10447;DHT22;70909;45.768;4.884;2023-06-26T07:33:23;35.30;67.10
10447;DHT22;70909;45.768;4.884;2023-06-26T07:35:50;35.20;66.30
10447;DHT22;70909;45.768;4.884;2023-06-26T07:38:16;34.60;66.60
10447;DHT22;70909;45.768;4.884;2023-06-26T07:40:43;34.20;66.90
10447;DHT22;70909;45.768;4.884;2023-06-26T07:43:11;33.70;66.80
10447;DHT22;70909;45.768;4.884;2023-06-26T07:45:38;33.10;67.20
10447;DHT22;70909;45.768;4.884;2023-06-26T07:48:06;32.80;67.90
10447;DHT22;70909;45.768;4.884;2023-06-26T07:50:33;32.50;68.20
10447;DHT22;70909;45.768;4.884;2023-06-26T07:52:59;32.30;68.80
10447;DHT22;70909;45.768;4.884;2023-06-26T07:55:26;32.10;69.10
10447;DHT22;70909;45.768;4.884;2023-06-26T07:57:53;32.00;68.80
10447;DHT22;70909;45.768;4.884;2023-06-26T08:00:22;31.80;69.30
10447;DHT22;70909;45.768;4.884;2023-06-26T08:02:49;31.70;69.70
10447;DHT22;70909;45.768;4.884;2023-06-26T08:05:16;31.60;69.60
10447;DHT22;70909;45.768;4.884;2023-06-26T08:07:42;31.50;69.60
10447;DHT22;70909;45.768;4.884;2023-06-26T08:10:10;31.50;69.70
10447;DHT22;70909;45.768;4.884;2023-06-26T08:12:37;31.50;70.00
10447;DHT22;70909;45.768;4.884;2023-06-26T08:15:06;31.60;70.00
10447;DHT22;70909;45.768;4.884;2023-06-26T08:17:34;31.60;70.10
10447;DHT22;70909;45.768;4.884;2023-06-26T08:20:02;31.60;69.90
10447;DHT22;70909;45.768;4.884;2023-06-26T08:22:29;31.50;69.70
10447;DHT22;70909;45.768;4.884;2023-06-26T08:24:56;31.50;69.90
10447;DHT22;70909;45.768;4.884;2023-06-26T08:27:22;31.40;69.80
10447;DHT22;70909;45.768;4.884;2023-06-26T08:29:49;31.40;69.80
10447;DHT22;70909;45.768;4.884;2023-06-26T08:32:16;31.40;69.90
10447;DHT22;70909;45.768;4.884;2023-06-26T08:34:44;31.40;70.10
10447;DHT22;70909;45.768;4.884;2023-06-26T08:37:11;31.50;69.40
10447;DHT22;70909;45.768;4.884;2023-06-26T08:39:38;31.60;69.60
10447;DHT22;70909;45.768;4.884;2023-06-26T08:42:05;31.70;69.00
10447;DHT22;70909;45.768;4.884;2023-06-26T08:44:32;31.70;68.70
10447;DHT22;70909;45.768;4.884;2023-06-26T08:46:59;31.70;68.60
10447;DHT22;70909;45.768;4.884;2023-06-26T08:49:41;31.70;68.80
10447;DHT22;70909;45.768;4.884;2023-06-26T08:52:16;31.70;68.50
10447;DHT22;70909;45.768;4.884;2023-06-26T08:54:46;31.80;68.40
10447;DHT22;70909;45.768;4.884;2023-06-26T08:57:15;31.90;68.30
10447;DHT22;70909;45.768;4.884;2023-06-26T08:59:45;31.80;68.20
10447;DHT22;70909;45.768;4.884;2023-06-26T09:02:12;31.70;68.70
10447;DHT22;70909;45.768;4.884;2023-06-26T09:04:40;31.70;69.50
10447;DHT22;70909;45.768;4.884;2023-06-26T09:07:07;31.70;68.30
10447;DHT22;70909;45.768;4.884;2023-06-26T09:09:35;31.70;68.60
10447;DHT22;70909;45.768;4.884;2023-06-26T09:12:04;31.70;69.30
10447;DHT22;70909;45.768;4.884;2023-06-26T09:14:31;31.70;68.50
10447;DHT22;70909;45.768;4.884;2023-06-26T09:16:58;31.70;68.30
10447;DHT22;70909;45.768;4.884;2023-06-26T09:19:25;31.60;68.10
10447;DHT22;70909;45.768;4.884;2023-06-26T09:21:52;31.50;68.40
10447;DHT22;70909;45.768;4.884;2023-06-26T09:24:19;31.50;68.70
10447;DHT22;70909;45.768;4.884;2023-06-26T09:26:48;31.50;68.30
10447;DHT22;70909;45.768;4.884;2023-06-26T09:29:15;31.50;68.10
10447;DHT22;70909;45.768;4.884;2023-06-26T09:31:44;31.70;68.10
10447;DHT22;70909;45.768;4.884;2023-06-26T09:34:11;31.70;68.10
10447;DHT22;70909;45.768;4.884;2023-06-26T09:36:37;31.70;68.10
10447;DHT22;70909;45.768;4.884;2023-06-26T09:39:05;31.80;68.40
10447;DHT22;70909;45.768;4.884;2023-06-26T09:41:36;31.90;68.60
10447;DHT22;70909;45.768;4.884;2023-06-26T09:44:05;31.90;68.10
10447;DHT22;70909;45.768;4.884;2023-06-26T09:46:33;31.90;67.90
10447;DHT22;70909;45.768;4.884;2023-06-26T09:49:03;32.00;67.50
10447;DHT22;70909;45.768;4.884;2023-06-26T09:51:31;31.90;67.60
10447;DHT22;70909;45.768;4.884;2023-06-26T09:53:58;31.90;67.60
10447;DHT22;70909;45.768;4.884;2023-06-26T09:56:25;31.90;68.10
10447;DHT22;70909;45.768;4.884;2023-06-26T09:58:55;31.90;68.00
10447;DHT22;70909;45.768;4.884;2023-06-26T10:01:23;31.90;68.60
10447;DHT22;70909;45.768;4.884;2023-06-26T10:03:50;31.90;68.90
10447;DHT22;70909;45.768;4.884;2023-06-26T10:06:20;31.90;68.80
10447;DHT22;70909;45.768;4.884;2023-06-26T10:08:49;31.90;68.90
10447;DHT22;70909;45.768;4.884;2023-06-26T10:11:18;32.00;69.50
10447;DHT22;70909;45.768;4.884;2023-06-26T10:13:49;32.00;69.80
10447;DHT22;70909;45.768;4.884;2023-06-26T10:16:21;32.00;69.00
10447;DHT22;70909;45.768;4.884;2023-06-26T10:18:52;32.00;69.30
10447;DHT22;70909;45.768;4.884;2023-06-26T10:21:20;32.00;69.20
10447;DHT22;70909;45.768;4.884;2023-06-26T10:23:50;31.90;69.60
10447;DHT22;70909;45.768;4.884;2023-06-26T10:26:20;31.70;69.60
10447;DHT22;70909;45.768;4.884;2023-06-26T10:28:48;31.70;69.90
10447;DHT22;70909;45.768;4.884;2023-06-26T10:31:20;31.60;70.30
10447;DHT22;70909;45.768;4.884;2023-06-26T10:33:49;31.70;70.50
10447;DHT22;70909;45.768;4.884;2023-06-26T10:36:17;31.70;70.30
10447;DHT22;70909;45.768;4.884;2023-06-26T10:38:52;31.80;70.30
10447;DHT22;70909;45.768;4.884;2023-06-26T10:41:20;31.80;69.70
10447;DHT22;70909;45.768;4.884;2023-06-26T10:43:52;31.80;69.80
10447;DHT22;70909;45.768;4.884;2023-06-26T10:46:33;31.80;70.60
10447;DHT22;70909;45.768;4.884;2023-06-26T10:49:02;31.90;70.00
10447;DHT22;70909;45.768;4.884;2023-06-26T10:51:29;31.80;69.60
10447;DHT22;70909;45.768;4.884;2023-06-26T10:53:58;31.80;70.00
10447;DHT22;70909;45.768;4.884;2023-06-26T10:56:45;31.70;69.90
10447;DHT22;70909;45.768;4.884;2023-06-26T10:59:17;31.60;70.10
10447;DHT22;70909;45.768;4.884;2023-06-26T11:01:45;31.60;70.40
10447;DHT22;70909;45.768;4.884;2023-06-26T11:04:14;31.60;70.40
10447;DHT22;70909;45.768;4.884;2023-06-26T11:06:45;31.60;70.00
10447;DHT22;70909;45.768;4.884;2023-06-26T11:09:17;31.50;70.10
10447;DHT22;70909;45.768;4.884;2023-06-26T11:12:00;31.50;70.30
10447;DHT22;70909;45.768;4.884;2023-06-26T11:14:33;31.50;70.00
10447;DHT22;70909;45.768;4.884;2023-06-26T11:17:03;31.50;69.90
10447;DHT22;70909;45.768;4.884;2023-06-26T11:19:32;31.60;69.90
10447;DHT22;70909;45.768;4.884;2023-06-26T11:22:03;31.60;69.70
10447;DHT22;70909;45.768;4.884;2023-06-26T11:24:30;31.60;69.60
10447;DHT22;70909;45.768;4.884;2023-06-26T11:27:00;31.60;69.60
10447;DHT22;70909;45.768;4.884;2023-06-26T11:29:29;31.60;69.20
10447;DHT22;70909;45.768;4.884;2023-06-26T11:32:00;31.40;69.10
10447;DHT22;70909;45.768;4.884;2023-06-26T11:34:31;31.20;69.30
10447;DHT22;70909;45.768;4.884;2023-06-26T11:36:58;31.10;69.20
10447;DHT22;70909;45.768;4.884;2023-06-26T11:39:29;31.10;69.30
10447;DHT22;70909;45.768;4.884;2023-06-26T11:41:56;31.20;69.00
10447;DHT22;70909;45.768;4.884;2023-06-26T11:44:23;31.10;68.90
10447;DHT22;70909;45.768;4.884;2023-06-26T11:46:53;31.20;69.30
10447;DHT22;70909;45.768;4.884;2023-06-26T11:49:21;31.30;68.90
10447;DHT22;70909;45.768;4.884;2023-06-26T11:51:53;31.30;67.60
10447;DHT22;70909;45.768;4.884;2023-06-26T11:54:25;31.20;68.00
10447;DHT22;70909;45.768;4.884;2023-06-26T11:56:54;31.20;67.90
10447;DHT22;70909;45.768;4.884;2023-06-26T11:59:22;31.10;68.00
10447;DHT22;70909;45.768;4.884;2023-06-26T12:01:50;31.10;68.30
10447;DHT22;70909;45.768;4.884;2023-06-26T12:04:18;31.00;68.30
10447;DHT22;70909;45.768;4.884;2023-06-26T12:06:47;30.90;68.90
10447;DHT22;70909;45.768;4.884;2023-06-26T12:09:18;30.80;68.90
10447;DHT22;70909;45.768;4.884;2023-06-26T12:11:47;30.70;68.90
10447;DHT22;70909;45.768;4.884;2023-06-26T12:14:15;30.60;68.80
10447;DHT22;70909;45.768;4.884;2023-06-26T12:16:43;30.60;68.10
10447;DHT22;70909;45.768;4.884;2023-06-26T12:19:10;30.70;67.90
10447;DHT22;70909;45.768;4.884;2023-06-26T12:21:47;30.70;68.20
10447;DHT22;70909;45.768;4.884;2023-06-26T12:24:19;30.70;67.90
10447;DHT22;70909;45.768;4.884;2023-06-26T12:26:49;30.70;67.50
10447;DHT22;70909;45.768;4.884;2023-06-26T12:29:20;30.80;67.50
10447;DHT22;70909;45.768;4.884;2023-06-26T12:31:50;30.80;67.00
10447;DHT22;70909;45.768;4.884;2023-06-26T12:34:19;30.80;66.60
10447;DHT22;70909;45.768;4.884;2023-06-26T12:36:48;30.80;65.90
10447;DHT22;70909;45.768;4.884;2023-06-26T12:39:16;30.70;66.50
10447;DHT22;70909;45.768;4.884;2023-06-26T12:41:48;30.80;66.80
10447;DHT22;70909;45.768;4.884;2023-06-26T12:44:19;30.80;66.70
10447;DHT22;70909;45.768;4.884;2023-06-26T12:46:47;30.80;65.70
10447;DHT22;70909;45.768;4.884;2023-06-26T12:49:14;30.80;65.00
10447;DHT22;70909;45.768;4.884;2023-06-26T12:51:41;30.90;66.00
10447;DHT22;70909;45.768;4.884;2023-06-26T12:54:08;30.80;66.20
10447;DHT22;70909;45.768;4.884;2023-06-26T12:56:35;30.90;66.20
10447;DHT22;70909;45.768;4.884;2023-06-26T12:59:03;30.90;65.60
10447;DHT22;70909;45.768;4.884;2023-06-26T13:01:30;30.90;65.10
10447;DHT22;70909;45.768;4.884;2023-06-26T13:03:57;30.90;63.50
10447;DHT22;70909;45.768;4.884;2023-06-26T13:06:24;30.90;63.50
10447;DHT22;70909;45.768;4.884;2023-06-26T13:08:50;31.00;64.00
10447;DHT22;70909;45.768;4.884;2023-06-26T13:11:17;31.00;64.50
10447;DHT22;70909;45.768;4.884;2023-06-26T13:13:44;31.10;64.80
10447;DHT22;70909;45.768;4.884;2023-06-26T13:16:12;31.00;64.60
10447;DHT22;70909;45.768;4.884;2023-06-26T13:18:39;31.00;63.10
10447;DHT22;70909;45.768;4.884;2023-06-26T13:21:06;30.90;63.10
10447;DHT22;70909;45.768;4.884;2023-06-26T13:23:32;30.80;63.50
10447;DHT22;70909;45.768;4.884;2023-06-26T13:25:59;30.80;63.80
10447;DHT22;70909;45.768;4.884;2023-06-26T13:28:26;30.80;64.40
10447;DHT22;70909;45.768;4.884;2023-06-26T13:30:53;30.90;63.90
10447;DHT22;70909;45.768;4.884;2023-06-26T13:33:21;30.90;64.30
10447;DHT22;70909;45.768;4.884;2023-06-26T13:35:50;30.90;64.50
10447;DHT22;70909;45.768;4.884;2023-06-26T13:38:19;30.90;64.50
10447;DHT22;70909;45.768;4.884;2023-06-26T13:40:45;31.10;64.70
10447;DHT22;70909;45.768;4.884;2023-06-26T13:43:12;31.10;65.00
10447;DHT22;70909;45.768;4.884;2023-06-26T13:45:39;31.10;65.00
10447;DHT22;70909;45.768;4.884;2023-06-26T13:48:06;31.20;64.70
10447;DHT22;70909;45.768;4.884;2023-06-26T13:50:34;31.20;64.50
10447;DHT22;70909;45.768;4.884;2023-06-26T13:53:01;31.10;64.00
10447;DHT22;70909;45.768;4.884;2023-06-26T13:55:28;31.20;64.00
10447;DHT22;70909;45.768;4.884;2023-06-26T13:57:56;31.20;64.20
10447;DHT22;70909;45.768;4.884;2023-06-26T14:00:24;31.20;64.80
10447;DHT22;70909;45.768;4.884;2023-06-26T14:02:51;31.20;64.80
10447;DHT22;70909;45.768;4.884;2023-06-26T14:05:18;31.30;64.80
10447;DHT22;70909;45.768;4.884;2023-06-26T14:07:46;31.40;64.70
10447;DHT22;70909;45.768;4.884;2023-06-26T14:10:15;31.30;64.60
10447;DHT22;70909;45.768;4.884;2023-06-26T14:12:42;31.30;64.70
10447;DHT22;70909;45.768;4.884;2023-06-26T14:15:10;31.30;64.90
10447;DHT22;70909;45.768;4.884;2023-06-26T14:17:37;31.30;64.70
10447;DHT22;70909;45.768;4.884;2023-06-26T14:20:06;31.30;64.60
10447;DHT22;70909;45.768;4.884;2023-06-26T14:22:34;31.30;64.80
10447;DHT22;70909;45.768;4.884;2023-06-26T14:25:03;31.30;64.60
10447;DHT22;70909;45.768;4.884;2023-06-26T14:27:30;31.20;64.60
10447;DHT22;70909;45.768;4.884;2023-06-26T14:29:57;31.30;64.70
10447;DHT22;70909;45.768;4.884;2023-06-26T14:32:24;31.30;64.50
10447;DHT22;70909;45.768;4.884;2023-06-26T14:34:50;31.30;64.90
10447;DHT22;70909;45.768;4.884;2023-06-26T14:37:17;31.20;64.80
10447;DHT22;70909;45.768;4.884;2023-06-26T14:39:44;31.20;65.00
10447;DHT22;70909;45.768;4.884;2023-06-26T14:42:12;31.20;64.90
10447;DHT22;70909;45.768;4.884;2023-06-26T14:44:39;31.20;64.70
10447;DHT22;70909;45.768;4.884;2023-06-26T14:47:06;31.20;64.80
10447;DHT22;70909;45.768;4.884;2023-06-26T14:49:33;31.20;64.70
10447;DHT22;70909;45.768;4.884;2023-06-26T14:52:00;31.30;64.60
10447;DHT22;70909;45.768;4.884;2023-06-26T14:54:26;31.30;64.80
10447;DHT22;70909;45.768;4.884;2023-06-26T14:56:53;31.30;64.90
10447;DHT22;70909;45.768;4.884;2023-06-26T14:59:21;31.40;64.90
10447;DHT22;70909;45.768;4.884;2023-06-26T15:01:48;31.40;64.80
10447;DHT22;70909;45.768;4.884;2023-06-26T15:04:15;31.40;64.90
10447;DHT22;70909;45.768;4.884;2023-06-26T15:06:42;31.40;64.80
10447;DHT22;70909;45.768;4.884;2023-06-26T15:09:09;31.40;65.00
10447;DHT22;70909;45.768;4.884;2023-06-26T15:11:35;31.40;65.10
10447;DHT22;70909;45.768;4.884;2023-06-26T15:14:02;31.40;64.80
10447;DHT22;70909;45.768;4.884;2023-06-26T15:16:30;31.40;65.00
10447;DHT22;70909;45.768;4.884;2023-06-26T15:18:57;31.30;65.20
10447;DHT22;70909;45.768;4.884;2023-06-26T15:21:24;31.30;65.50
10447;DHT22;70909;45.768;4.884;2023-06-26T15:23:51;31.40;65.40
10447;DHT22;70909;45.768;4.884;2023-06-26T15:26:18;31.30;64.90
10447;DHT22;70909;45.768;4.884;2023-06-26T15:28:45;31.40;64.30
10447;DHT22;70909;45.768;4.884;2023-06-26T15:31:13;31.30;64.20
10447;DHT22;70909;45.768;4.884;2023-06-26T15:33:41;31.30;64.10